createdAt,value
2019-04-27T00:00:45.548Z,19.67
2019-04-27T00:03:06.131Z,19.07
2019-04-27T00:05:35.463Z,20.32
2019-04-27T00:07:56.235Z,23.50
2019-04-27T00:10:05.593Z,23.50
2019-04-27T00:12:22.499Z,20.60
2019-04-27T00:14:34.181Z,26.45
2019-04-27T00:16:56.756Z,24.20
2019-04-27T00:19:18.336Z,32.17
2019-04-27T00:21:34.058Z,21.37
2019-04-27T00:23:45.028Z,18.00
2019-04-27T00:25:55.604Z,18.45
2019-04-27T00:28:05.531Z,19.30
2019-04-27T00:30:17.494Z,19.62
2019-04-27T00:32:26.651Z,17.37
2019-04-27T00:34:38.818Z,18.17
2019-04-27T00:37:03.573Z,19.00
2019-04-27T00:39:36.509Z,18.80
2019-04-27T00:41:50.127Z,19.92
2019-04-27T00:44:04.292Z,20.48
2019-04-27T00:46:25.550Z,20.65
2019-04-27T00:48:33.338Z,23.05
2019-04-27T00:50:44.587Z,23.95
2019-04-27T00:52:53.704Z,21.00
2019-04-27T00:55:03.471Z,20.68
2019-04-27T00:57:14.752Z,21.23
2019-04-27T00:59:34.651Z,20.62
2019-04-27T01:01:47.320Z,18.75
2019-04-27T01:04:05.660Z,19.23
2019-04-27T01:06:19.964Z,18.95
2019-04-27T01:08:29.261Z,19.15
2019-04-27T01:10:40.783Z,20.12
2019-04-27T01:12:55.487Z,19.82
2019-04-27T01:15:13.563Z,21.37
2019-04-27T01:17:23.556Z,22.17
2019-04-27T01:19:36.922Z,20.80
2019-04-27T01:21:49.696Z,19.95
2019-04-27T01:24:00.624Z,21.45
2019-04-27T01:26:24.694Z,22.25
2019-04-27T01:28:45.246Z,21.23
2019-04-27T01:30:58.899Z,21.25
2019-04-27T01:33:12.051Z,21.95
2019-04-27T01:35:23.195Z,21.62
2019-04-27T01:37:34.062Z,22.15
2019-04-27T01:39:43.618Z,20.48
2019-04-27T01:41:56.831Z,20.23
2019-04-27T01:44:09.515Z,19.07
2019-04-27T01:46:19.571Z,20.32
2019-04-27T01:48:30.536Z,20.95
2019-04-27T01:50:39.609Z,19.80
2019-04-27T01:52:50.395Z,22.17
2019-04-27T01:55:00.303Z,19.45
2019-04-27T01:57:13.448Z,18.10
2019-04-27T01:59:24.317Z,15.55
2019-04-27T02:01:41.300Z,18.50
2019-04-27T02:04:09.152Z,15.85
2019-04-27T02:06:21.420Z,17.25
2019-04-27T02:08:36.636Z,16.05
2019-04-27T02:10:50.239Z,15.93
2019-04-27T02:13:00.497Z,16.02
2019-04-27T02:15:12.464Z,17.25
2019-04-27T02:17:29.742Z,16.97
2019-04-27T02:19:39.342Z,15.85
2019-04-27T02:21:55.077Z,16.87
2019-04-27T02:24:05.481Z,15.60
2019-04-27T02:26:16.791Z,15.93
2019-04-27T02:28:40.518Z,15.18
2019-04-27T02:31:02.047Z,14.25
2019-04-27T02:33:20.311Z,15.48
2019-04-27T02:35:30.142Z,16.90
2019-04-27T02:37:40.303Z,18.05
2019-04-27T02:39:50.325Z,15.90
2019-04-27T02:42:02.176Z,18.50
2019-04-27T02:44:24.910Z,17.17
2019-04-27T02:46:39.592Z,17.60
2019-04-27T02:48:57.732Z,15.40
2019-04-27T02:51:11.284Z,17.17
2019-04-27T02:53:33.219Z,16.37
2019-04-27T02:55:43.921Z,17.52
2019-04-27T02:57:53.482Z,18.35
2019-04-27T03:00:03.693Z,17.80
2019-04-27T03:02:36.608Z,16.57
2019-04-27T03:04:46.784Z,17.15
2019-04-27T03:07:00.366Z,15.75
2019-04-27T03:09:10.607Z,16.07
2019-04-27T03:11:23.462Z,16.70
2019-04-27T03:13:33.603Z,17.10
2019-04-27T03:15:53.869Z,19.50
2019-04-27T03:18:19.424Z,15.10
2019-04-27T03:20:32.948Z,12.58
2019-04-27T03:22:46.783Z,11.55
2019-04-27T03:25:14.921Z,11.10
2019-04-27T03:27:30.416Z,10.72
2019-04-27T03:29:42.370Z,10.20
2019-04-27T03:31:54.616Z,11.00
2019-04-27T03:34:05.939Z,11.80
2019-04-27T03:36:21.436Z,11.55
2019-04-27T03:38:30.591Z,11.15
2019-04-27T03:40:41.939Z,10.80
2019-04-27T03:42:53.739Z,11.00
2019-04-27T03:45:10.433Z,11.18
2019-04-27T03:47:24.052Z,10.90
2019-04-27T03:49:38.721Z,9.95
2019-04-27T03:51:55.408Z,10.55
2019-04-27T03:54:21.554Z,10.82
2019-04-27T03:56:32.834Z,9.35
2019-04-27T03:58:44.497Z,8.20
2019-04-27T04:00:55.288Z,9.58
2019-04-27T04:03:06.532Z,9.48
2019-04-27T04:05:19.652Z,9.73
2019-04-27T04:07:30.270Z,9.48
2019-04-27T04:09:44.317Z,10.28
2019-04-27T04:12:02.319Z,10.30
2019-04-27T04:14:20.133Z,10.45
2019-04-27T04:16:40.214Z,10.03
2019-04-27T04:19:00.389Z,9.15
2019-04-27T04:21:09.677Z,10.68
2019-04-27T04:23:20.621Z,10.15
2019-04-27T04:25:35.667Z,10.85
2019-04-27T04:27:50.677Z,10.13
2019-04-27T04:30:03.219Z,9.83
2019-04-27T04:32:12.941Z,9.15
2019-04-27T04:34:25.422Z,9.85
2019-04-27T04:36:35.440Z,9.23
2019-04-27T04:38:47.140Z,10.95
2019-04-27T04:41:01.888Z,10.35
2019-04-27T04:43:19.934Z,9.75
2019-04-27T04:45:31.810Z,10.00
2019-04-27T04:47:46.370Z,9.45
2019-04-27T04:50:10.224Z,9.95
2019-04-27T04:52:10.503Z,9.25
2019-04-27T04:54:24.809Z,9.45
2019-04-27T04:56:39.753Z,10.18
2019-04-27T04:58:53.233Z,10.70
2019-04-27T05:01:12.275Z,10.60
2019-04-27T05:03:15.926Z,9.33
2019-04-27T05:05:27.183Z,9.20
2019-04-27T05:07:38.760Z,10.08
2019-04-27T05:09:50.022Z,10.30
2019-04-27T05:12:00.677Z,10.50
2019-04-27T05:14:10.282Z,10.68
2019-04-27T05:16:21.695Z,10.03
2019-04-27T05:18:31.458Z,9.75
2019-04-27T05:20:46.220Z,10.68
2019-04-27T05:22:59.419Z,10.48
2019-04-27T05:25:10.975Z,11.28
2019-04-27T05:27:28.931Z,11.90
2019-04-27T05:29:39.044Z,11.48
2019-04-27T05:31:50.077Z,11.12
2019-04-27T05:33:59.918Z,10.78
2019-04-27T05:36:09.476Z,12.82
2019-04-27T05:38:22.057Z,12.28
2019-04-27T05:40:32.587Z,12.50
2019-04-27T05:42:43.434Z,12.47
2019-04-27T05:45:24.450Z,13.00
2019-04-27T05:47:43.361Z,11.18
2019-04-27T05:49:55.585Z,12.75
2019-04-27T05:52:14.460Z,13.95
2019-04-27T05:54:22.546Z,15.15
2019-04-27T05:56:38.998Z,16.05
2019-04-27T05:58:53.375Z,14.78
2019-04-27T06:01:03.471Z,15.32
2019-04-27T06:03:13.646Z,16.30
2019-04-27T06:05:24.143Z,16.70
2019-04-27T06:07:35.699Z,16.82
2019-04-27T06:09:49.274Z,17.07
2019-04-27T06:11:59.647Z,17.05
2019-04-27T06:14:09.768Z,17.70
2019-04-27T06:16:24.059Z,17.67
2019-04-27T06:18:33.573Z,16.67
2019-04-27T06:20:54.819Z,16.90
2019-04-27T06:22:54.849Z,17.65
2019-04-27T06:25:05.734Z,17.07
2019-04-27T06:27:15.556Z,17.50
2019-04-27T06:29:24.840Z,18.25
2019-04-27T06:31:34.915Z,20.20
2019-04-27T06:33:44.491Z,20.25
2019-04-27T06:35:55.158Z,20.12
2019-04-27T06:38:04.955Z,21.60
2019-04-27T06:40:16.526Z,20.55
2019-04-27T06:42:26.314Z,19.25
2019-04-27T06:44:36.313Z,21.77
2019-04-27T06:46:49.015Z,21.25
2019-04-27T06:48:59.396Z,21.00
2019-04-27T06:51:10.890Z,23.15
2019-04-27T06:53:23.523Z,21.87
2019-04-27T06:55:33.606Z,21.15
2019-04-27T06:57:43.186Z,20.45
2019-04-27T06:59:53.966Z,21.85
2019-04-27T07:02:06.446Z,20.77
2019-04-27T07:04:17.128Z,18.80
2019-04-27T07:06:28.603Z,16.97
2019-04-27T07:08:40.145Z,20.35
2019-04-27T07:10:49.580Z,24.02
2019-04-27T07:12:59.816Z,23.95
2019-04-27T07:15:15.393Z,24.12
2019-04-27T07:17:22.633Z,23.98
2019-04-27T07:19:37.125Z,21.93
2019-04-27T07:21:49.806Z,24.37
2019-04-27T07:24:03.176Z,22.93
2019-04-27T07:26:12.375Z,25.25
2019-04-27T07:28:21.837Z,22.70
2019-04-27T07:30:32.085Z,21.37
2019-04-27T07:32:42.369Z,20.45
2019-04-27T07:34:51.345Z,21.23
2019-04-27T07:37:00.539Z,22.95
2019-04-27T07:39:11.605Z,21.37
2019-04-27T07:41:22.516Z,18.82
2019-04-27T07:43:43.678Z,24.35
2019-04-27T07:45:53.536Z,23.85
2019-04-27T07:48:09.146Z,22.27
2019-04-27T07:50:22.402Z,25.85
2019-04-27T07:52:32.747Z,23.52
2019-04-27T07:54:45.809Z,26.42
2019-04-27T07:56:56.177Z,28.90
2019-04-27T07:59:10.549Z,27.85
2019-04-27T08:01:20.036Z,25.92
2019-04-27T08:03:31.611Z,28.25
2019-04-27T08:05:42.198Z,26.97
2019-04-27T08:07:52.391Z,25.97
2019-04-27T08:10:02.336Z,24.72
2019-04-27T08:12:12.965Z,25.17
2019-04-27T08:14:23.304Z,25.48
2019-04-27T08:16:36.433Z,24.25
2019-04-27T08:18:51.542Z,23.65
2019-04-27T08:21:02.762Z,23.50
2019-04-27T08:23:14.168Z,24.12
2019-04-27T08:25:25.878Z,23.77
2019-04-27T08:27:41.741Z,22.10
2019-04-27T08:30:00.736Z,18.65
2019-04-27T08:32:19.601Z,22.17
2019-04-27T08:34:37.517Z,23.20
2019-04-27T08:36:47.879Z,22.22
2019-04-27T08:38:59.783Z,20.52
2019-04-27T08:41:12.969Z,20.82
2019-04-27T08:43:23.716Z,21.17
2019-04-27T08:45:34.909Z,21.75
2019-04-27T08:47:49.498Z,21.52
2019-04-27T08:49:59.253Z,21.07
2019-04-27T08:52:10.833Z,22.30
2019-04-27T08:54:22.292Z,23.02
2019-04-27T08:56:32.219Z,22.82
2019-04-27T08:58:42.274Z,24.05
2019-04-27T09:00:52.575Z,23.52
2019-04-27T09:03:03.687Z,22.40
2019-04-27T09:05:13.416Z,22.02
2019-04-27T09:07:39.608Z,20.92
2019-04-27T09:09:49.901Z,22.73
2019-04-27T09:11:59.598Z,23.73
2019-04-27T09:14:13.437Z,23.80
2019-04-27T09:16:30.775Z,24.92
2019-04-27T09:18:41.085Z,24.55
2019-04-27T09:20:58.772Z,23.45
2019-04-27T09:23:09.728Z,26.45
2019-04-27T09:25:19.362Z,25.30
2019-04-27T09:27:29.634Z,23.70
2019-04-27T09:29:40.685Z,22.22
2019-04-27T09:31:56.238Z,21.60
2019-04-27T09:34:08.361Z,20.90
2019-04-27T09:36:17.883Z,22.82
2019-04-27T09:38:29.754Z,24.00
2019-04-27T09:40:38.997Z,24.80
2019-04-27T09:42:48.908Z,23.00
2019-04-27T09:44:58.382Z,24.07
2019-04-27T09:47:10.433Z,22.75
2019-04-27T09:49:26.357Z,22.25
2019-04-27T09:51:38.634Z,20.77
2019-04-27T09:53:49.568Z,23.05
2019-04-27T09:56:05.726Z,22.07
2019-04-27T09:58:19.277Z,22.27
2019-04-27T10:00:51.098Z,22.00
2019-04-27T10:06:29.945Z,22.40
2019-04-27T10:11:19.659Z,22.22
2019-04-27T10:13:30.159Z,21.75
2019-04-27T10:15:39.525Z,21.68
2019-04-27T10:17:48.635Z,22.20
2019-04-27T10:19:57.929Z,22.00
2019-04-27T10:22:06.874Z,22.17
2019-04-27T10:24:18.581Z,22.22
2019-04-27T10:26:28.142Z,22.40
2019-04-27T10:28:37.325Z,21.57
2019-04-27T10:30:45.812Z,22.80
2019-04-27T10:32:54.053Z,22.15
2019-04-27T10:35:01.949Z,24.23
2019-04-27T10:37:23.793Z,24.67
2019-04-27T10:39:43.018Z,24.07
2019-04-27T10:41:53.202Z,22.62
2019-04-27T10:44:01.423Z,23.52
2019-04-27T10:46:09.708Z,23.73
2019-04-27T10:48:18.119Z,23.80
2019-04-27T10:50:26.677Z,23.95
2019-04-27T10:52:34.854Z,22.93
2019-04-27T10:54:43.947Z,24.18
2019-04-27T10:56:52.199Z,23.15
2019-04-27T10:59:00.685Z,23.62
2019-04-27T11:03:55.445Z,22.13
2019-04-27T11:06:26.166Z,22.70
2019-04-27T11:08:34.644Z,23.07
2019-04-27T11:10:43.144Z,23.85
2019-04-27T11:12:51.538Z,24.77
2019-04-27T11:15:00.380Z,27.00
2019-04-27T11:17:10.616Z,27.37
2019-04-27T11:19:19.887Z,29.30
2019-04-27T11:21:27.790Z,29.92
2019-04-27T11:23:35.967Z,31.33
2019-04-27T11:28:19.716Z,30.32
2019-04-27T11:30:30.344Z,31.65
2019-04-27T11:32:38.273Z,29.20
2019-04-27T11:35:05.743Z,32.20
2019-04-27T11:37:15.602Z,31.37
2019-04-27T11:39:25.939Z,30.85
2019-04-27T11:41:33.777Z,29.45
2019-04-27T11:43:41.844Z,28.20
2019-04-27T11:45:49.809Z,27.85
2019-04-27T11:47:57.701Z,26.75
2019-04-27T11:50:08.303Z,26.40
2019-04-27T11:52:16.311Z,25.70
2019-04-27T11:54:25.563Z,25.08
2019-04-27T11:56:36.195Z,25.50
2019-04-27T11:58:44.528Z,25.32
2019-04-27T12:00:52.500Z,24.95
2019-04-27T12:03:00.423Z,23.77
2019-04-27T12:05:09.147Z,25.30
2019-04-27T12:07:16.950Z,24.60
2019-04-27T12:09:24.764Z,22.07
2019-04-27T12:11:32.555Z,24.10
2019-04-27T12:13:40.349Z,23.25
2019-04-27T12:15:48.247Z,21.27
2019-04-27T12:17:57.502Z,22.67
2019-04-27T12:20:10.479Z,22.48
2019-04-27T12:22:18.549Z,22.22
2019-04-27T12:24:26.822Z,22.67
2019-04-27T12:26:39.561Z,21.42
2019-04-27T12:28:51.860Z,20.95
2019-04-27T12:31:01.300Z,21.12
2019-04-27T12:33:09.630Z,21.55
2019-04-27T12:35:17.570Z,20.52
2019-04-27T12:37:26.834Z,20.80
2019-04-27T12:39:34.686Z,18.55
2019-04-27T12:41:46.152Z,16.77
2019-04-27T12:43:55.993Z,19.77
2019-04-27T12:46:05.832Z,22.02
2019-04-27T12:48:15.096Z,23.05
2019-04-27T12:50:23.222Z,24.35
2019-04-27T12:52:31.154Z,21.70
2019-04-27T12:54:56.759Z,21.85
2019-04-27T12:57:22.663Z,24.50
2019-04-27T12:59:48.117Z,22.82
2019-04-27T13:01:56.442Z,19.85
2019-04-27T13:04:04.408Z,19.55
2019-04-27T13:06:12.301Z,18.80
2019-04-27T13:08:20.844Z,15.70
2019-04-27T13:10:28.746Z,14.40
2019-04-27T13:12:36.536Z,13.30
2019-04-27T13:14:45.755Z,18.32
2019-04-27T13:16:53.842Z,15.88
2019-04-27T13:19:01.735Z,15.60
2019-04-27T13:21:09.559Z,16.30
2019-04-27T13:23:17.452Z,17.45
2019-04-27T13:25:25.478Z,16.82
2019-04-27T13:27:33.789Z,16.35
2019-04-27T13:29:42.798Z,15.93
2019-04-27T13:31:50.766Z,16.35
2019-04-27T13:33:58.775Z,17.80
2019-04-27T13:36:07.625Z,16.60
2019-04-27T13:38:18.062Z,23.18
2019-04-27T13:40:26.098Z,23.22
2019-04-27T13:42:41.587Z,19.77
2019-04-27T13:44:49.810Z,19.25
2019-04-27T13:47:17.077Z,17.73
2019-04-27T13:49:30.826Z,18.27
2019-04-27T13:51:40.361Z,18.10
2019-04-27T13:53:48.176Z,17.52
2019-04-27T13:55:56.896Z,15.83
2019-04-27T13:58:05.721Z,13.43
2019-04-27T14:00:14.808Z,14.13
2019-04-27T14:02:24.251Z,14.38
2019-04-27T14:04:32.388Z,17.37
2019-04-27T14:06:42.004Z,18.07
2019-04-27T14:08:49.970Z,16.02
2019-04-27T14:11:01.078Z,15.25
2019-04-27T14:13:10.912Z,14.05
2019-04-27T14:15:18.712Z,13.83
2019-04-27T14:17:26.640Z,14.55
2019-04-27T14:19:35.259Z,13.28
2019-04-27T14:21:43.674Z,15.88
2019-04-27T14:23:51.679Z,14.47
2019-04-27T14:26:00.412Z,15.18
2019-04-27T14:28:11.150Z,14.78
2019-04-27T14:30:19.687Z,13.62
2019-04-27T14:32:28.737Z,13.30
2019-04-27T14:34:36.825Z,13.88
2019-04-27T14:36:45.101Z,15.05
2019-04-27T14:38:53.278Z,15.03
2019-04-27T14:41:01.380Z,15.72
2019-04-27T14:43:09.445Z,14.13
2019-04-27T14:45:18.911Z,17.40
2019-04-27T14:47:29.929Z,17.42
2019-04-27T14:49:39.084Z,14.65
2019-04-27T14:51:48.659Z,13.30
2019-04-27T14:54:01.901Z,15.55
2019-04-27T14:56:11.507Z,13.93
2019-04-27T14:58:20.108Z,14.90
2019-04-27T15:00:28.783Z,16.52
2019-04-27T15:02:40.832Z,17.37
2019-04-27T15:04:49.435Z,16.23
2019-04-27T15:07:00.749Z,16.90
2019-04-27T15:09:13.403Z,16.70
2019-04-27T15:11:19.776Z,16.12
2019-04-27T15:13:28.669Z,15.13
2019-04-27T15:15:38.233Z,15.60
2019-04-27T15:17:47.192Z,15.05
2019-04-27T15:20:01.542Z,15.78
2019-04-27T15:22:12.702Z,16.90
2019-04-27T15:24:21.996Z,14.18
2019-04-27T15:26:30.857Z,15.25
2019-04-27T15:28:44.707Z,16.82
2019-04-27T15:30:59.559Z,16.30
2019-04-27T15:33:19.086Z,17.32
2019-04-27T15:35:40.495Z,14.90
2019-04-27T15:37:57.043Z,13.98
2019-04-27T15:40:24.897Z,13.53
2019-04-27T15:42:34.914Z,15.83
2019-04-27T15:44:44.213Z,13.18
2019-04-27T15:46:53.688Z,13.80
2019-04-27T15:49:03.115Z,13.45
2019-04-27T15:51:18.351Z,11.73
2019-04-27T15:53:25.827Z,13.05
2019-04-27T15:55:36.981Z,13.35
2019-04-27T15:57:46.899Z,11.48
2019-04-27T15:59:58.457Z,12.13
2019-04-27T16:02:11.809Z,11.30
2019-04-27T16:04:17.879Z,12.85
2019-04-27T16:06:28.215Z,10.50
2019-04-27T16:08:38.248Z,11.25
2019-04-27T16:10:48.738Z,12.00
2019-04-27T16:17:21.355Z,12.58
2019-04-27T16:19:32.014Z,13.10
2019-04-27T16:21:47.808Z,13.25
2019-04-27T16:23:53.304Z,14.10
2019-04-27T16:26:05.224Z,14.35
2019-04-27T16:28:13.502Z,13.00
2019-04-27T16:30:21.768Z,13.22
2019-04-27T16:32:30.942Z,12.03
2019-04-27T16:34:41.215Z,11.43
2019-04-27T16:36:52.331Z,16.12
2019-04-27T16:39:03.749Z,13.88
2019-04-27T16:41:14.158Z,16.50
2019-04-27T16:43:23.811Z,23.67
2019-04-27T16:45:34.109Z,23.65
2019-04-27T16:47:42.388Z,25.32
2019-04-27T16:49:50.625Z,24.52
2019-04-27T16:51:59.207Z,26.00
2019-04-27T16:54:11.176Z,24.32
2019-04-27T16:56:20.498Z,24.40
2019-04-27T16:58:28.547Z,25.50
2019-04-27T17:00:40.691Z,25.52
2019-04-27T17:02:49.196Z,28.85
2019-04-27T17:04:58.619Z,26.85
2019-04-27T17:07:08.710Z,28.15
2019-04-27T17:09:16.173Z,28.55
2019-04-27T17:11:24.095Z,27.45
2019-04-27T17:13:34.273Z,28.10
2019-04-27T17:15:55.001Z,26.50
2019-04-27T17:18:24.379Z,24.87
2019-04-27T17:20:32.620Z,26.45
2019-04-27T17:22:40.442Z,27.20
2019-04-27T17:24:49.347Z,23.42
2019-04-27T17:26:59.040Z,26.35
2019-04-27T17:29:16.470Z,27.22
2019-04-27T17:31:23.013Z,20.97
2019-04-27T17:33:38.669Z,25.57
2019-04-27T17:35:46.496Z,29.10
2019-04-27T17:37:54.535Z,29.07
2019-04-27T17:40:02.347Z,27.90
2019-04-27T17:42:11.387Z,27.25
2019-04-27T17:44:23.151Z,27.75
2019-04-27T17:46:31.520Z,28.60
2019-04-27T17:48:39.601Z,29.27
2019-04-27T17:50:48.966Z,28.20
2019-04-27T17:52:59.092Z,27.30
2019-04-27T17:55:12.253Z,28.85
2019-04-27T17:57:22.237Z,28.17
2019-04-27T17:59:30.992Z,29.05
2019-04-27T18:01:39.745Z,17.50
2019-04-27T18:03:58.518Z,25.15
2019-04-27T18:05:58.186Z,29.55
2019-04-27T18:08:08.285Z,34.30
2019-04-27T18:10:21.148Z,31.77
2019-04-27T18:12:26.073Z,30.23
2019-04-27T18:14:47.845Z,32.05
2019-04-27T18:16:55.765Z,31.73
2019-04-27T18:19:11.967Z,32.00
2019-04-27T18:21:21.438Z,32.90
2019-04-27T18:23:51.868Z,34.92
2019-04-27T18:25:57.689Z,33.08
2019-04-27T18:28:14.682Z,32.88
2019-04-27T18:30:19.186Z,35.17
2019-04-27T18:32:27.740Z,33.02
2019-04-27T18:34:36.555Z,32.85
2019-04-27T18:36:44.975Z,32.00
2019-04-27T18:38:52.974Z,31.70
2019-04-27T18:41:02.980Z,29.45
2019-04-27T18:43:13.816Z,29.48
2019-04-27T18:45:21.772Z,29.57
2019-04-27T18:47:31.238Z,30.17
2019-04-27T18:49:53.842Z,30.10
2019-04-27T18:52:19.920Z,32.35
2019-04-27T18:54:28.783Z,34.63
2019-04-27T18:56:38.428Z,39.15
2019-04-27T18:58:47.634Z,36.93
2019-04-27T19:00:55.791Z,32.42
2019-04-27T19:03:05.018Z,31.55
2019-04-27T19:05:13.314Z,32.38
2019-04-27T19:07:21.126Z,44.88
2019-04-27T19:09:29.016Z,86.00
2019-04-27T19:11:38.272Z,36.03
2019-04-27T19:13:46.510Z,37.40
2019-04-27T19:15:54.470Z,43.23
2019-04-27T19:18:03.536Z,32.75
2019-04-27T19:20:12.704Z,34.38
2019-04-27T19:22:20.566Z,36.58
2019-04-27T19:24:28.530Z,34.67
2019-04-27T19:26:54.967Z,39.40
2019-04-27T19:29:14.802Z,33.65
2019-04-27T19:31:24.373Z,38.53
2019-04-27T19:33:32.281Z,34.15
2019-04-27T19:35:40.178Z,37.00
2019-04-27T19:37:48.630Z,41.95
2019-04-27T19:39:58.249Z,35.25
2019-04-27T19:42:06.238Z,38.10
2019-04-27T19:44:14.109Z,39.35
2019-04-27T19:46:22.030Z,25.95
2019-04-27T19:48:29.920Z,38.67
2019-04-27T19:50:39.281Z,37.70
2019-04-27T19:52:47.190Z,40.70
2019-04-27T19:54:55.007Z,39.85
2019-04-27T19:57:03.013Z,41.13
2019-04-27T19:59:12.587Z,35.80
2019-04-27T20:01:25.217Z,29.12
2019-04-27T20:03:48.242Z,44.95
2019-04-27T20:05:56.482Z,43.70
2019-04-27T20:08:06.015Z,41.60
2019-04-27T20:10:14.437Z,40.98
2019-04-27T20:12:22.266Z,41.70
2019-04-27T20:14:32.148Z,42.43
2019-04-27T20:16:41.749Z,40.03
2019-04-27T20:18:51.630Z,45.65
2019-04-27T20:21:01.042Z,41.55
2019-04-27T20:23:09.226Z,43.35
2019-04-27T20:25:17.412Z,37.78
2019-04-27T20:27:25.675Z,42.53
2019-04-27T20:29:33.876Z,36.77
2019-04-27T20:31:43.059Z,41.80
2019-04-27T20:33:53.764Z,45.05
2019-04-27T20:36:01.355Z,42.10
2019-04-27T20:38:11.150Z,40.52
2019-04-27T20:40:21.604Z,39.88
2019-04-27T20:42:31.293Z,41.15
2019-04-27T20:44:41.392Z,40.23
2019-04-27T20:46:51.364Z,37.15
2019-04-27T20:49:01.265Z,38.98
2019-04-27T20:51:11.153Z,36.58
2019-04-27T20:53:21.042Z,40.30
2019-04-27T20:55:29.490Z,40.28
2019-04-27T20:57:37.710Z,37.73
2019-04-27T20:59:45.804Z,38.88
2019-04-27T21:01:53.963Z,40.00
2019-04-27T21:04:03.931Z,39.67
2019-04-27T21:06:23.015Z,40.63
2019-04-27T21:08:32.449Z,42.10
2019-04-27T21:10:41.297Z,43.33
2019-04-27T21:12:49.741Z,38.95
2019-04-27T21:14:57.732Z,45.58
2019-04-27T21:17:05.850Z,46.77
2019-04-27T21:19:14.133Z,47.58
2019-04-27T21:21:22.221Z,44.77
2019-04-27T21:23:31.194Z,45.85
2019-04-27T21:25:42.075Z,45.35
2019-04-27T21:27:51.316Z,42.17
2019-04-27T21:29:59.603Z,42.90
2019-04-27T21:32:08.014Z,43.60
2019-04-27T21:34:15.928Z,42.13
2019-04-27T21:36:23.859Z,40.70
2019-04-27T21:38:31.673Z,42.70
2019-04-27T21:40:40.854Z,40.92
2019-04-27T21:42:51.066Z,42.55
2019-04-27T21:45:01.264Z,42.43
2019-04-27T21:47:11.212Z,39.48
2019-04-27T21:49:21.235Z,40.58
2019-04-27T21:51:30.097Z,38.23
2019-04-27T21:53:46.768Z,39.50
2019-04-27T21:56:06.740Z,39.35
2019-04-27T21:58:28.379Z,37.05
2019-04-27T22:00:42.738Z,41.63
2019-04-27T22:02:52.699Z,41.55
2019-04-27T22:05:01.118Z,40.73
2019-04-27T22:07:11.492Z,42.78
2019-04-27T22:09:20.220Z,43.63
2019-04-27T22:11:28.222Z,43.48
2019-04-27T22:13:36.212Z,41.98
2019-04-27T22:15:44.028Z,41.60
2019-04-27T22:17:52.363Z,43.80
2019-04-27T22:20:01.794Z,39.88
2019-04-27T22:22:13.243Z,40.08
2019-04-27T22:24:29.471Z,41.45
2019-04-27T22:26:37.530Z,39.98
2019-04-27T22:28:49.229Z,37.15
2019-04-27T22:30:55.526Z,37.28
2019-04-27T22:33:03.714Z,36.73
2019-04-27T22:35:13.222Z,37.53
2019-04-27T22:37:21.412Z,37.58
2019-04-27T22:39:31.090Z,37.40
2019-04-27T22:41:41.675Z,38.05
2019-04-27T22:44:07.529Z,37.78
2019-04-27T22:46:33.673Z,40.58
2019-04-27T22:48:41.647Z,41.90
2019-04-27T22:50:51.367Z,41.60
2019-04-27T22:52:59.302Z,39.95
2019-04-27T22:55:08.499Z,42.73
2019-04-27T22:57:18.415Z,36.10
2019-04-27T22:59:45.211Z,39.48
2019-04-27T23:01:55.751Z,39.05
2019-04-27T23:04:05.353Z,40.15
2019-04-27T23:06:14.224Z,41.37
2019-04-27T23:08:23.201Z,38.63
2019-04-27T23:10:32.638Z,36.70
2019-04-27T23:12:41.976Z,34.00
2019-04-27T23:14:50.299Z,36.45
2019-04-27T23:17:00.811Z,36.93
2019-04-27T23:19:10.885Z,36.93
2019-04-27T23:21:20.785Z,37.60
2019-04-27T23:23:31.025Z,35.88
2019-04-27T23:25:42.378Z,35.78
2019-04-27T23:27:51.278Z,35.83
2019-04-27T23:29:59.210Z,34.73
2019-04-27T23:32:11.864Z,34.88
2019-04-27T23:34:21.657Z,33.05
2019-04-27T23:36:31.720Z,34.78
2019-04-27T23:38:40.808Z,33.98
2019-04-27T23:40:49.396Z,31.90
2019-04-27T23:42:57.492Z,34.85
2019-04-27T23:45:08.055Z,34.95
2019-04-27T23:47:16.233Z,36.13
2019-04-27T23:49:24.330Z,35.45
2019-04-27T23:51:32.186Z,35.65
2019-04-27T23:53:41.774Z,36.45
2019-04-27T23:55:50.283Z,36.33
2019-04-27T23:57:59.456Z,30.82
